Time;durP1;ratioP1;P1;durP2;ratioP2;P2;SDS_P1;SDS_P2;PMS_P1;PMS_P2;Temp;Humidity;BMP_temperature;BMP_pressure;BME280_temperature;BME280_humidity;BME280_pressure;Samples;Min_cycle;Max_cycle;Signal;HPM_P1;HPM_P2
2024/01/06 00:00:28;;;;;;;60.38;28.92;;;;;;;;;;5004226;28;20538;-78
2024/01/06 00:02:54;;;;;;;67.25;34.72;;;;;;;;;;5019639;28;20058;-78
2024/01/06 00:05:20;;;;;;;68.93;32.75;;;;;;;;;;5007221;28;20030;-77
2024/01/06 00:07:45;;;;;;;70.45;36.83;;;;;;;;;;5007642;28;20042;-79
2024/01/06 00:10:11;;;;;;;72.28;38.53;;;;;;;;;;5006881;28;20041;-78
2024/01/06 00:12:38;;;;;;;77.30;38.20;;;;;;;;;;5007024;28;20105;-77
2024/01/06 00:15:04;;;;;;;81.10;37.92;;;;;;;;;;5008062;28;20435;-77
2024/01/06 00:17:32;;;;;;;62.35;33.85;;;;;;;;;;5007065;28;20038;-77
2024/01/06 00:20:00;;;;;;;58.90;32.35;;;;;;;;;;4990153;28;20479;-79
2024/01/06 00:22:26;;;;;;;63.10;35.35;;;;;;;;;;5006591;28;20406;-77
2024/01/06 00:24:52;;;;;;;69.80;34.83;;;;;;;;;;5006913;28;20113;-79
2024/01/06 00:27:18;;;;;;;59.80;34.00;;;;;;;;;;5007030;28;20083;-77
2024/01/06 00:29:47;;;;;;;65.15;34.88;;;;;;;;;;5006335;28;20052;-79
2024/01/06 00:32:13;;;;;;;59.83;34.53;;;;;;;;;;5008639;28;20030;-79
2024/01/06 00:34:40;;;;;;;57.20;31.10;;;;;;;;;;5006963;28;20022;-80
2024/01/06 00:37:06;;;;;;;60.15;34.67;;;;;;;;;;5004154;28;20060;-78
2024/01/06 00:39:32;;;;;;;68.65;36.13;;;;;;;;;;5007523;28;20092;-78
2024/01/06 00:41:58;;;;;;;62.63;33.42;;;;;;;;;;5000588;28;20022;-78
2024/01/06 00:44:24;;;;;;;78.75;35.83;;;;;;;;;;5006028;28;20045;-78
2024/01/06 00:46:50;;;;;;;70.43;35.08;;;;;;;;;;5002642;28;20030;-78
2024/01/06 00:49:17;;;;;;;62.15;32.63;;;;;;;;;;5006714;28;20829;-78
2024/01/06 00:51:42;;;;;;;52.97;28.95;;;;;;;;;;5008953;28;20029;-78
2024/01/06 00:54:09;;;;;;;61.25;30.60;;;;;;;;;;5006013;28;20076;-77
2024/01/06 00:56:35;;;;;;;54.67;29.10;;;;;;;;;;5006732;28;20053;-77
2024/01/06 00:59:01;;;;;;;54.85;28.40;;;;;;;;;;5006642;28;20571;-77
2024/01/06 01:01:28;;;;;;;51.85;26.80;;;;;;;;;;5006084;28;20038;-78
2024/01/06 01:03:55;;;;;;;53.25;28.55;;;;;;;;;;5005464;28;20381;-77
2024/01/06 01:06:21;;;;;;;56.70;28.38;;;;;;;;;;5007957;28;20073;-77
2024/01/06 01:08:48;;;;;;;49.92;26.23;;;;;;;;;;5007689;28;20041;-79
2024/01/06 01:11:14;;;;;;;50.30;26.80;;;;;;;;;;4974040;28;20026;-77
2024/01/06 01:13:40;;;;;;;48.97;25.08;;;;;;;;;;5007117;28;20034;-78
2024/01/06 01:16:09;;;;;;;45.80;26.40;;;;;;;;;;5007433;28;20042;-78
2024/01/06 01:18:34;;;;;;;46.30;26.65;;;;;;;;;;5011005;28;20030;-78
2024/01/06 01:21:00;;;;;;;43.35;23.92;;;;;;;;;;5011326;28;20037;-78
2024/01/06 01:23:26;;;;;;;43.65;26.38;;;;;;;;;;5012655;28;20030;-78
2024/01/06 01:25:54;;;;;;;46.83;25.63;;;;;;;;;;5007996;28;20811;-78
2024/01/06 01:28:20;;;;;;;50.78;26.33;;;;;;;;;;5004411;28;20557;-78
2024/01/06 01:30:46;;;;;;;52.78;28.10;;;;;;;;;;5007712;28;20282;-78
2024/01/06 01:33:13;;;;;;;50.63;28.85;;;;;;;;;;5007745;28;20097;-78
2024/01/06 01:35:39;;;;;;;57.67;30.80;;;;;;;;;;5000954;28;20465;-78
2024/01/06 01:38:07;;;;;;;51.60;28.50;;;;;;;;;;5007483;28;20049;-77
2024/01/06 01:40:32;;;;;;;48.10;27.85;;;;;;;;;;5005586;28;20092;-77
2024/01/06 01:42:58;;;;;;;47.13;27.60;;;;;;;;;;5001878;28;20033;-77
2024/01/06 01:45:25;;;;;;;49.42;27.80;;;;;;;;;;5007102;28;20040;-77
2024/01/06 01:47:58;;;;;;;56.10;30.73;;;;;;;;;;5006999;28;20037;-77
2024/01/06 01:50:27;;;;;;;52.63;29.33;;;;;;;;;;5008555;28;20042;-77
2024/01/06 01:52:54;;;;;;;50.05;30.35;;;;;;;;;;5039708;28;20388;-77
2024/01/06 01:55:21;;;;;;;53.75;31.17;;;;;;;;;;5007278;28;20053;-76
2024/01/06 01:57:47;;;;;;;51.53;29.67;;;;;;;;;;5003757;28;20034;-76
2024/01/06 02:00:13;;;;;;;55.70;31.00;;;;;;;;;;5007802;28;20038;-78
2024/01/06 02:02:39;;;;;;;63.50;34.65;;;;;;;;;;4990003;28;20105;-78
2024/01/06 02:05:05;;;;;;;61.72;34.28;;;;;;;;;;5007236;28;20049;-78
2024/01/06 02:07:31;;;;;;;65.18;36.97;;;;;;;;;;5005962;28;20065;-79
2024/01/06 02:09:57;;;;;;;61.10;35.22;;;;;;;;;;5006323;28;20041;-77
2024/01/06 02:12:23;;;;;;;59.53;31.45;;;;;;;;;;5010742;28;20025;-78
2024/01/06 02:14:49;;;;;;;57.55;31.92;;;;;;;;;;5007303;28;20036;-78
2024/01/06 02:17:16;;;;;;;57.40;32.50;;;;;;;;;;5007475;28;20065;-77
2024/01/06 02:19:41;;;;;;;62.88;33.40;;;;;;;;;;4990040;28;20112;-77
2024/01/06 02:22:07;;;;;;;54.22;31.58;;;;;;;;;;5007303;28;20057;-77
2024/01/06 02:24:33;;;;;;;64.63;32.88;;;;;;;;;;5006814;28;20424;-77
2024/01/06 02:26:59;;;;;;;50.67;30.60;;;;;;;;;;5007359;28;20045;-77
2024/01/06 02:29:26;;;;;;;53.47;31.40;;;;;;;;;;5007415;28;20034;-78
2024/01/06 02:31:52;;;;;;;56.15;31.40;;;;;;;;;;5007768;28;20041;-80
2024/01/06 02:34:18;;;;;;;58.72;32.65;;;;;;;;;;4978290;28;20045;-80
2024/01/06 02:36:45;;;;;;;61.53;32.70;;;;;;;;;;5012049;28;20039;-81
2024/01/06 02:39:11;;;;;;;56.65;33.72;;;;;;;;;;4987728;28;20037;-81
2024/01/06 02:41:38;;;;;;;54.50;30.55;;;;;;;;;;4985837;28;20166;-80
2024/01/06 02:44:05;;;;;;;53.17;30.02;;;;;;;;;;4987031;28;20038;-80
2024/01/06 02:46:31;;;;;;;63.47;34.58;;;;;;;;;;4983959;28;20046;-81
2024/01/06 02:48:57;;;;;;;67.80;35.78;;;;;;;;;;4986128;28;20031;-80
2024/01/06 02:51:23;;;;;;;57.55;32.90;;;;;;;;;;4987865;28;20045;-81
2024/01/06 02:53:49;;;;;;;54.28;33.05;;;;;;;;;;4988637;28;20069;-78
2024/01/06 02:56:15;;;;;;;51.05;31.80;;;;;;;;;;4981130;28;20051;-78
2024/01/06 02:58:41;;;;;;;53.53;31.70;;;;;;;;;;5015612;28;20049;-77
2024/01/06 03:01:07;;;;;;;57.22;29.77;;;;;;;;;;4985538;28;20050;-78
2024/01/06 03:03:33;;;;;;;52.70;29.98;;;;;;;;;;4986440;28;20053;-78
2024/01/06 03:05:59;;;;;;;49.17;28.75;;;;;;;;;;4985512;28;20065;-78
2024/01/06 03:08:26;;;;;;;49.33;28.35;;;;;;;;;;4988703;28;20045;-79
2024/01/06 03:10:52;;;;;;;49.65;29.65;;;;;;;;;;4991000;28;20531;-78
2024/01/06 03:13:18;;;;;;;57.30;32.47;;;;;;;;;;4971628;28;20040;-78
2024/01/06 03:15:44;;;;;;;63.10;31.73;;;;;;;;;;4973102;28;20026;-78
2024/01/06 03:18:10;;;;;;;53.22;30.42;;;;;;;;;;4990465;28;20488;-78
2024/01/06 03:20:36;;;;;;;57.72;33.85;;;;;;;;;;4989452;28;20043;-77
2024/01/06 03:23:02;;;;;;;58.50;34.08;;;;;;;;;;4990587;28;20112;-78
2024/01/06 03:25:28;;;;;;;62.67;36.42;;;;;;;;;;4990820;28;20508;-77
2024/01/06 03:27:54;;;;;;;66.45;38.95;;;;;;;;;;4990426;28;20022;-78
2024/01/06 03:30:23;;;;;;;65.05;35.92;;;;;;;;;;4973495;28;20058;-78
2024/01/06 03:32:50;;;;;;;59.65;34.85;;;;;;;;;;4990676;28;20030;-78
2024/01/06 03:35:16;;;;;;;65.88;34.83;;;;;;;;;;4988495;28;20038;-78
2024/01/06 03:37:44;;;;;;;58.53;34.47;;;;;;;;;;4989421;28;20041;-78
2024/01/06 03:40:11;;;;;;;54.95;31.65;;;;;;;;;;4990271;28;20043;-78
2024/01/06 03:42:38;;;;;;;53.75;31.17;;;;;;;;;;4990038;28;20058;-77
2024/01/06 03:45:05;;;;;;;57.60;31.27;;;;;;;;;;4990041;28;20038;-77
2024/01/06 03:47:31;;;;;;;61.95;32.55;;;;;;;;;;4990265;28;20073;-77
2024/01/06 03:49:58;;;;;;;67.20;34.45;;;;;;;;;;4989964;28;20100;-78
2024/01/06 03:52:24;;;;;;;54.25;31.42;;;;;;;;;;4989441;28;20034;-77
2024/01/06 03:54:50;;;;;;;50.13;30.08;;;;;;;;;;4970000;28;20054;-77
2024/01/06 03:57:15;;;;;;;50.97;30.00;;;;;;;;;;4989593;28;20030;-76
2024/01/06 03:59:42;;;;;;;45.10;28.70;;;;;;;;;;4981603;28;20038;-78
2024/01/06 04:02:08;;;;;;;54.35;29.42;;;;;;;;;;4982000;28;20134;-77
2024/01/06 04:04:34;;;;;;;48.45;27.38;;;;;;;;;;4969772;28;20113;-78
2024/01/06 04:07:01;;;;;;;44.17;25.83;;;;;;;;;;4989878;28;20133;-76
2024/01/06 04:09:27;;;;;;;48.45;25.85;;;;;;;;;;4980241;28;20515;-78
2024/01/06 04:11:53;;;;;;;45.90;28.02;;;;;;;;;;4986314;28;20030;-78
2024/01/06 04:14:19;;;;;;;47.58;26.70;;;;;;;;;;4989224;28;20116;-78
2024/01/06 04:16:45;;;;;;;41.10;25.10;;;;;;;;;;4984912;28;20113;-77
2024/01/06 04:19:13;;;;;;;43.08;25.35;;;;;;;;;;4989722;28;20041;-77
2024/01/06 04:21:39;;;;;;;42.63;25.65;;;;;;;;;;4987035;28;20512;-77
2024/01/06 04:24:09;;;;;;;43.55;26.23;;;;;;;;;;4989132;28;20036;-82
2024/01/06 04:26:36;;;;;;;49.28;25.85;;;;;;;;;;4987845;28;20551;-77
2024/01/06 04:29:02;;;;;;;47.35;24.52;;;;;;;;;;4990111;28;20061;-77
2024/01/06 04:31:27;;;;;;;42.17;24.75;;;;;;;;;;4991523;28;20515;-78
2024/01/06 04:33:53;;;;;;;37.60;23.17;;;;;;;;;;4993330;28;20077;-77
2024/01/06 04:36:19;;;;;;;40.03;23.38;;;;;;;;;;4994065;28;20050;-78
2024/01/06 04:38:45;;;;;;;42.13;24.13;;;;;;;;;;4992646;28;20038;-77
2024/01/06 04:41:11;;;;;;;37.10;22.40;;;;;;;;;;4993466;28;20441;-78
2024/01/06 04:43:37;;;;;;;36.55;22.98;;;;;;;;;;4993853;28;20061;-78
2024/01/06 04:46:03;;;;;;;33.10;20.92;;;;;;;;;;4992513;28;20069;-78
2024/01/06 04:48:29;;;;;;;36.40;20.70;;;;;;;;;;4987295;28;20238;-78
2024/01/06 04:50:55;;;;;;;32.33;19.52;;;;;;;;;;4993869;28;20561;-78
2024/01/06 04:53:21;;;;;;;37.83;20.48;;;;;;;;;;4991710;28;20045;-79
2024/01/06 04:55:46;;;;;;;40.80;20.30;;;;;;;;;;4993234;28;20022;-78
2024/01/06 04:58:12;;;;;;;37.78;22.02;;;;;;;;;;4993678;28;20121;-79
2024/01/06 05:00:38;;;;;;;42.28;22.63;;;;;;;;;;4993585;28;20030;-77
2024/01/06 05:03:04;;;;;;;35.58;21.92;;;;;;;;;;4992421;28;20503;-76
2024/01/06 05:05:29;;;;;;;34.15;20.55;;;;;;;;;;4993201;28;20387;-78
2024/01/06 05:07:56;;;;;;;39.70;21.52;;;;;;;;;;4993603;28;20054;-77
2024/01/06 05:10:22;;;;;;;36.60;21.08;;;;;;;;;;4992160;28;20074;-78
2024/01/06 05:12:48;;;;;;;46.75;26.15;;;;;;;;;;4993374;28;20220;-77
2024/01/06 05:15:13;;;;;;;46.25;25.77;;;;;;;;;;4993135;28;20042;-77
2024/01/06 05:17:39;;;;;;;40.45;22.83;;;;;;;;;;4992107;28;20117;-78
2024/01/06 05:20:06;;;;;;;35.13;20.35;;;;;;;;;;4993360;28;20053;-78
2024/01/06 05:22:32;;;;;;;39.85;19.00;;;;;;;;;;4993039;28;20050;-78
2024/01/06 05:24:58;;;;;;;24.67;14.15;;;;;;;;;;4993011;28;20149;-78
2024/01/06 05:27:23;;;;;;;29.00;15.98;;;;;;;;;;4991936;28;20038;-77
2024/01/06 05:29:51;;;;;;;24.85;15.30;;;;;;;;;;4988247;28;20038;-78
2024/01/06 05:32:17;;;;;;;25.33;15.75;;;;;;;;;;4993202;28;20093;-78
2024/01/06 05:34:44;;;;;;;33.58;16.50;;;;;;;;;;4992799;28;20026;-78
2024/01/06 05:37:11;;;;;;;30.08;17.35;;;;;;;;;;4991836;28;20125;-78
2024/01/06 05:39:40;;;;;;;32.25;18.13;;;;;;;;;;4991739;28;20097;-78
2024/01/06 05:42:08;;;;;;;29.67;18.25;;;;;;;;;;4991374;28;20105;-78
2024/01/06 05:44:37;;;;;;;32.97;18.80;;;;;;;;;;4992358;28;20033;-78
2024/01/06 05:47:03;;;;;;;38.45;19.85;;;;;;;;;;4992809;28;20209;-76
2024/01/06 05:49:28;;;;;;;33.63;19.33;;;;;;;;;;4992690;28;20061;-77
2024/01/06 05:51:54;;;;;;;32.67;18.20;;;;;;;;;;4992708;28;20105;-78
2024/01/06 05:54:21;;;;;;;39.42;22.77;;;;;;;;;;4992766;28;20072;-76
2024/01/06 05:56:47;;;;;;;36.40;21.38;;;;;;;;;;4992848;28;20407;-79
2024/01/06 05:59:12;;;;;;;39.65;20.92;;;;;;;;;;4993172;28;20135;-81
2024/01/06 06:01:38;;;;;;;32.42;19.88;;;;;;;;;;4990792;28;20034;-81
2024/01/06 06:04:04;;;;;;;34.58;20.20;;;;;;;;;;4999129;28;20029;-81
2024/01/06 06:06:33;;;;;;;32.30;18.30;;;;;;;;;;4995134;28;20165;-81
2024/01/06 06:08:59;;;;;;;33.15;18.20;;;;;;;;;;4999870;28;20041;-80
2024/01/06 06:11:24;;;;;;;35.38;19.45;;;;;;;;;;4975036;28;20034;-80
2024/01/06 06:13:50;;;;;;;33.58;18.73;;;;;;;;;;4984527;28;20440;-80
2024/01/06 06:16:16;;;;;;;34.97;19.70;;;;;;;;;;4992261;28;20034;-81
2024/01/06 06:18:43;;;;;;;39.60;19.70;;;;;;;;;;4991401;28;20018;-81
2024/01/06 06:21:10;;;;;;;37.13;21.30;;;;;;;;;;4992487;28;20579;-80
2024/01/06 06:23:36;;;;;;;39.95;21.42;;;;;;;;;;4974624;28;20128;-81
2024/01/06 06:26:08;;;;;;;40.25;23.35;;;;;;;;;;4992235;28;20088;-80
2024/01/06 06:28:35;;;;;;;45.33;25.88;;;;;;;;;;5008228;28;20029;-80
2024/01/06 06:31:02;;;;;;;48.65;24.95;;;;;;;;;;5000709;28;20030;-82
2024/01/06 06:33:27;;;;;;;55.53;34.35;;;;;;;;;;4993930;28;20026;-80
2024/01/06 06:35:53;;;;;;;50.58;26.63;;;;;;;;;;4999393;28;20038;-82
2024/01/06 06:38:19;;;;;;;53.45;27.20;;;;;;;;;;4993185;28;20137;-82
2024/01/06 06:40:45;;;;;;;47.42;25.45;;;;;;;;;;4993903;28;20034;-80
2024/01/06 06:43:11;;;;;;;50.55;26.65;;;;;;;;;;4991630;28;20023;-81
2024/01/06 06:45:37;;;;;;;44.30;25.15;;;;;;;;;;4997907;28;20084;-82
2024/01/06 06:48:04;;;;;;;42.53;24.05;;;;;;;;;;4998616;28;20035;-81
2024/01/06 06:50:30;;;;;;;46.42;23.25;;;;;;;;;;4999831;28;20057;-82
2024/01/06 06:52:57;;;;;;;36.83;20.92;;;;;;;;;;4999979;28;20412;-80
2024/01/06 06:55:23;;;;;;;41.70;21.35;;;;;;;;;;5003090;28;20487;-80
2024/01/06 06:57:49;;;;;;;36.47;20.10;;;;;;;;;;4997269;28;20053;-80
2024/01/06 07:00:16;;;;;;;39.53;21.35;;;;;;;;;;5002074;28;20034;-82
2024/01/06 07:02:43;;;;;;;40.88;23.30;;;;;;;;;;5002641;28;20617;-82
2024/01/06 07:05:11;;;;;;;41.60;24.52;;;;;;;;;;4995519;28;20045;-79
2024/01/06 07:07:37;;;;;;;43.13;23.98;;;;;;;;;;5007502;28;20030;-82
2024/01/06 07:10:06;;;;;;;42.08;23.33;;;;;;;;;;4999108;28;20041;-80
2024/01/06 07:12:32;;;;;;;38.17;23.48;;;;;;;;;;4994826;28;20026;-81
2024/01/06 07:14:58;;;;;;;41.72;23.55;;;;;;;;;;5002663;28;20054;-80
2024/01/06 07:17:27;;;;;;;38.00;23.35;;;;;;;;;;4994308;28;20076;-82
2024/01/06 07:19:54;;;;;;;43.92;26.05;;;;;;;;;;4997231;28;20068;-82
2024/01/06 07:22:20;;;;;;;41.88;25.05;;;;;;;;;;4974278;28;20042;-81
2024/01/06 07:24:46;;;;;;;39.58;22.83;;;;;;;;;;5024338;28;20025;-81
2024/01/06 07:27:14;;;;;;;45.97;23.55;;;;;;;;;;4999423;28;20060;-80
2024/01/06 07:29:43;;;;;;;41.15;23.92;;;;;;;;;;5003776;28;20105;-80
2024/01/06 07:32:09;;;;;;;37.30;22.70;;;;;;;;;;4994542;28;20041;-81
2024/01/06 07:34:35;;;;;;;36.05;20.58;;;;;;;;;;5001708;28;20088;-81
2024/01/06 07:37:01;;;;;;;33.05;21.02;;;;;;;;;;4995412;28;20410;-79
2024/01/06 07:39:27;;;;;;;37.40;19.90;;;;;;;;;;5002218;28;20018;-80
2024/01/06 07:41:53;;;;;;;39.58;20.73;;;;;;;;;;4989196;28;20039;-82
2024/01/06 07:44:24;;;;;;;30.92;18.95;;;;;;;;;;4997416;28;20042;-81
2024/01/06 07:46:51;;;;;;;33.25;19.70;;;;;;;;;;5003574;28;20614;-80
2024/01/06 07:49:19;;;;;;;38.13;20.27;;;;;;;;;;5005030;28;20092;-80
2024/01/06 07:51:44;;;;;;;32.22;19.52;;;;;;;;;;4994792;28;20061;-80
2024/01/06 07:54:11;;;;;;;38.10;20.30;;;;;;;;;;5001512;28;20026;-80
2024/01/06 07:56:37;;;;;;;34.10;18.67;;;;;;;;;;5010255;28;20030;-81
2024/01/06 07:59:04;;;;;;;37.05;20.40;;;;;;;;;;4999608;28;20049;-81
2024/01/06 08:01:30;;;;;;;35.60;18.77;;;;;;;;;;4993475;28;20045;-80
2024/01/06 08:03:56;;;;;;;32.03;18.85;;;;;;;;;;4998439;28;20377;-81
2024/01/06 08:06:21;;;;;;;33.08;18.90;;;;;;;;;;4993874;28;20042;-80
2024/01/06 08:08:47;;;;;;;29.15;18.05;;;;;;;;;;4994945;28;20049;-80
2024/01/06 08:11:13;;;;;;;29.20;17.35;;;;;;;;;;4991476;28;20447;-79
2024/01/06 08:13:38;;;;;;;30.08;18.88;;;;;;;;;;4995965;28;20473;-79
2024/01/06 08:16:06;;;;;;;31.80;18.67;;;;;;;;;;4995568;28;20038;-78
2024/01/06 08:18:31;;;;;;;29.30;18.98;;;;;;;;;;4992654;28;20022;-80
2024/01/06 08:20:57;;;;;;;38.28;20.38;;;;;;;;;;4993204;28;20144;-80
2024/01/06 08:23:23;;;;;;;32.25;18.10;;;;;;;;;;4994031;28;20038;-79
2024/01/06 08:25:48;;;;;;;40.15;20.40;;;;;;;;;;4994975;28;20696;-80
2024/01/06 08:28:23;;;;;;;32.08;17.85;;;;;;;;;;4994092;28;20058;-81
2024/01/06 08:30:50;;;;;;;35.50;18.67;;;;;;;;;;4994455;28;20074;-80
2024/01/06 08:33:17;;;;;;;30.15;17.23;;;;;;;;;;4990754;28;20037;-80
2024/01/06 08:35:44;;;;;;;28.80;17.48;;;;;;;;;;4994267;28;20472;-80
2024/01/06 08:38:09;;;;;;;35.35;21.30;;;;;;;;;;4991850;28;20035;-80
2024/01/06 08:40:36;;;;;;;30.40;18.45;;;;;;;;;;4994120;28;20041;-81
2024/01/06 08:43:04;;;;;;;37.70;21.90;;;;;;;;;;4989811;28;20041;-78
2024/01/06 08:45:30;;;;;;;37.10;22.50;;;;;;;;;;4994438;28;20034;-84
2024/01/06 08:47:56;;;;;;;38.50;21.52;;;;;;;;;;4993958;28;20030;-79
2024/01/06 08:50:22;;;;;;;40.50;25.30;;;;;;;;;;4994694;28;20114;-81
2024/01/06 08:52:48;;;;;;;36.28;21.83;;;;;;;;;;4995464;28;20058;-80
2024/01/06 08:55:13;;;;;;;40.17;23.25;;;;;;;;;;4994310;28;20030;-80
2024/01/06 08:57:39;;;;;;;38.60;21.38;;;;;;;;;;4994434;28;20070;-80
2024/01/06 09:00:09;;;;;;;36.30;21.05;;;;;;;;;;4994151;28;20034;-82
2024/01/06 09:02:35;;;;;;;35.35;20.58;;;;;;;;;;4993838;28;20030;-80
2024/01/06 09:05:01;;;;;;;35.00;19.20;;;;;;;;;;4992843;28;20030;-81
2024/01/06 09:07:26;;;;;;;31.00;18.92;;;;;;;;;;4993658;28;20038;-81
2024/01/06 09:09:52;;;;;;;34.42;20.23;;;;;;;;;;4993745;28;20408;-83
2024/01/06 09:12:17;;;;;;;33.35;17.55;;;;;;;;;;4993756;28;20034;-81
2024/01/06 09:14:43;;;;;;;29.10;18.95;;;;;;;;;;4992736;28;20033;-82
2024/01/06 09:17:11;;;;;;;26.83;16.85;;;;;;;;;;4993842;28;20053;-81
2024/01/06 09:19:39;;;;;;;25.98;16.73;;;;;;;;;;4994639;28;20492;-81
2024/01/06 09:22:04;;;;;;;26.90;17.90;;;;;;;;;;4998054;28;20116;-79
2024/01/06 09:24:33;;;;;;;26.40;17.95;;;;;;;;;;5005217;28;20428;-81
2024/01/06 09:26:59;;;;;;;33.45;20.20;;;;;;;;;;4986732;28;20102;-82
2024/01/06 09:29:25;;;;;;;32.22;19.52;;;;;;;;;;4989105;28;20026;-80
2024/01/06 09:31:52;;;;;;;40.10;20.20;;;;;;;;;;4995178;28;20431;-83
2024/01/06 09:34:17;;;;;;;28.95;18.52;;;;;;;;;;4973811;28;20503;-81
2024/01/06 09:36:43;;;;;;;31.60;18.23;;;;;;;;;;4989402;28;20037;-82
2024/01/06 09:39:12;;;;;;;36.60;20.45;;;;;;;;;;4998575;28;20108;-81
2024/01/06 09:41:38;;;;;;;38.60;22.45;;;;;;;;;;5000199;28;20068;-80
2024/01/06 09:44:06;;;;;;;45.45;21.60;;;;;;;;;;4999216;28;20057;-82
2024/01/06 09:46:36;;;;;;;34.00;21.15;;;;;;;;;;4996833;28;20443;-80
2024/01/06 09:49:08;;;;;;;30.98;21.05;;;;;;;;;;4998220;28;20395;-81
2024/01/06 09:51:37;;;;;;;30.92;20.27;;;;;;;;;;4997533;28;20038;-80
2024/01/06 09:54:08;;;;;;;34.53;22.77;;;;;;;;;;4990965;28;20128;-78
2024/01/06 09:56:34;;;;;;;32.90;18.60;;;;;;;;;;4997990;28;20070;-79
2024/01/06 09:59:01;;;;;;;28.52;17.67;;;;;;;;;;4997412;28;20031;-80
2024/01/06 10:01:26;;;;;;;24.90;16.73;;;;;;;;;;4995570;28;20484;-82
2024/01/06 10:03:52;;;;;;;25.42;16.95;;;;;;;;;;5001991;28;20030;-79
2024/01/06 10:06:20;;;;;;;25.42;14.93;;;;;;;;;;4997121;28;20646;-81
2024/01/06 10:08:50;;;;;;;23.98;15.50;;;;;;;;;;4999824;28;20447;-79
2024/01/06 10:11:17;;;;;;;25.48;16.27;;;;;;;;;;4997085;28;20026;-82
2024/01/06 10:13:42;;;;;;;25.98;15.90;;;;;;;;;;4994871;28;20041;-79
2024/01/06 10:16:08;;;;;;;27.25;16.13;;;;;;;;;;5001722;28;20112;-80
2024/01/06 10:18:35;;;;;;;24.73;15.02;;;;;;;;;;5004461;28;20049;-81
2024/01/06 10:21:08;;;;;;;30.63;15.02;;;;;;;;;;4994902;28;20037;-81
2024/01/06 10:23:36;;;;;;;24.83;14.85;;;;;;;;;;5003590;28;20561;-79
2024/01/06 10:26:02;;;;;;;25.15;14.75;;;;;;;;;;5004435;28;20034;-78
2024/01/06 10:28:29;;;;;;;26.98;15.85;;;;;;;;;;4998308;28;20103;-79
2024/01/06 10:30:56;;;;;;;29.33;17.65;;;;;;;;;;5004615;28;20010;-81
2024/01/06 10:33:23;;;;;;;27.83;15.85;;;;;;;;;;4998344;28;20466;-81
2024/01/06 10:35:53;;;;;;;19.38;12.80;;;;;;;;;;4995329;28;20042;-80
2024/01/06 10:38:19;;;;;;;27.40;15.95;;;;;;;;;;5005340;28;20032;-80
2024/01/06 10:41:06;;;;;;;21.77;14.52;;;;;;;;;;4984761;28;20105;-81
2024/01/06 10:43:36;;;;;;;19.20;12.90;;;;;;;;;;5001271;28;20038;-81
2024/01/06 10:46:04;;;;;;;17.48;11.35;;;;;;;;;;5001390;28;20041;-81
2024/01/06 10:48:34;;;;;;;19.27;12.00;;;;;;;;;;4991440;28;20074;-79
2024/01/06 10:51:02;;;;;;;21.33;13.18;;;;;;;;;;4994487;28;20066;-80
2024/01/06 10:53:28;;;;;;;17.02;10.75;;;;;;;;;;4972374;28;20090;-83
2024/01/06 10:55:55;;;;;;;20.75;10.98;;;;;;;;;;4980783;28;20066;-80
2024/01/06 10:58:24;;;;;;;16.67;11.40;;;;;;;;;;4991042;28;20745;-78
2024/01/06 11:01:29;;;;;;;;;;;;;;;;;;;;;
2024/01/06 11:04:50;;;;;;;21.27;10.48;;;;;;;;;;4993516;28;20056;-81
2024/01/06 11:30:54;;;;;;;23.05;13.75;;;;;;;;;;5005589;28;20080;-81
2024/01/06 11:40:50;;;;;;;23.85;14.02;;;;;;;;;;4982596;28;20088;-80
2024/01/06 11:43:37;;;;;;;;;;;;;;;;;;;;;
2024/01/06 11:46:08;;;;;;;32.90;16.73;;;;;;;;;;4996477;28;20488;-79
2024/01/06 11:48:35;;;;;;;25.63;14.00;;;;;;;;;;5000952;28;20042;-78
2024/01/06 11:51:01;;;;;;;27.60;16.83;;;;;;;;;;4996954;28;20062;-79
2024/01/06 11:53:30;;;;;;;30.08;18.42;;;;;;;;;;4997324;28;20205;-78
2024/01/06 11:56:02;;;;;;;23.00;13.60;;;;;;;;;;5003807;28;20547;-78
2024/01/06 11:58:28;;;;;;;22.55;13.30;;;;;;;;;;4998221;28;20038;-78
2024/01/06 12:00:57;;;;;;;23.60;14.10;;;;;;;;;;5008853;28;20041;-78
2024/01/06 12:03:26;;;;;;;27.42;15.20;;;;;;;;;;4975257;28;20125;-78
2024/01/06 12:06:02;;;;;;;26.13;15.25;;;;;;;;;;4994966;28;20053;-79
2024/01/06 12:08:29;;;;;;;16.55;10.30;;;;;;;;;;5007073;28;20030;-78
2024/01/06 12:11:05;;;;;;;18.80;11.95;;;;;;;;;;4985790;28;20484;-78
2024/01/06 12:13:31;;;;;;;18.63;12.40;;;;;;;;;;4975182;28;20044;-80
2024/01/06 12:15:57;;;;;;;14.77;8.90;;;;;;;;;;4994370;28;20547;-78
2024/01/06 12:18:25;;;;;;;10.48;6.97;;;;;;;;;;4960968;28;20030;-80
2024/01/06 12:20:56;;;;;;;13.68;7.28;;;;;;;;;;4994087;28;20057;-79
2024/01/06 12:23:28;;;;;;;10.85;6.95;;;;;;;;;;5006475;28;20073;-78
2024/01/06 12:25:56;;;;;;;12.32;6.80;;;;;;;;;;4993974;28;20033;-80
2024/01/06 12:28:25;;;;;;;11.93;6.70;;;;;;;;;;4991957;28;20034;-78
2024/01/06 12:30:55;;;;;;;11.80;6.97;;;;;;;;;;4993103;28;20062;-78
2024/01/06 12:33:32;;;;;;;14.15;7.07;;;;;;;;;;4993592;28;20447;-77
2024/01/06 12:36:09;;;;;;;10.35;6.82;;;;;;;;;;5002798;28;20042;-78
2024/01/06 12:38:47;;;;;;;32.22;16.98;;;;;;;;;;4991740;28;20060;-78
2024/01/06 12:41:13;;;;;;;29.85;18.40;;;;;;;;;;4995563;28;20038;-78
2024/01/06 12:43:54;;;;;;;12.75;7.50;;;;;;;;;;4995415;28;20057;-78
2024/01/06 12:46:40;;;;;;;17.38;9.90;;;;;;;;;;4991694;28;20046;-78
2024/01/06 12:49:08;;;;;;;10.63;7.07;;;;;;;;;;4994377;28;20030;-79
2024/01/06 12:51:34;;;;;;;40.47;22.85;;;;;;;;;;4993088;28;20022;-81
2024/01/06 12:54:00;;;;;;;14.98;8.23;;;;;;;;;;5002139;28;20049;-83
2024/01/06 12:56:36;;;;;;;13.00;6.80;;;;;;;;;;4998119;28;20046;-85
2024/01/06 12:59:04;;;;;;;11.95;6.68;;;;;;;;;;4960144;28;20034;-83
2024/01/06 13:01:29;;;;;;;25.25;14.30;;;;;;;;;;5000563;28;20188;-86
2024/01/06 13:03:55;;;;;;;15.80;9.32;;;;;;;;;;4992126;28;20520;-87
2024/01/06 13:06:21;;;;;;;24.58;14.77;;;;;;;;;;5004384;28;20172;-83
2024/01/06 13:08:47;;;;;;;14.40;8.10;;;;;;;;;;4995378;28;20034;-83
2024/01/06 13:11:13;;;;;;;12.25;6.00;;;;;;;;;;5003684;28;20058;-82
2024/01/06 13:13:40;;;;;;;13.40;6.72;;;;;;;;;;4997333;28;20506;-83
2024/01/06 13:16:07;;;;;;;14.77;6.32;;;;;;;;;;4993016;28;20472;-82
2024/01/06 13:18:41;;;;;;;9.13;6.30;;;;;;;;;;4992280;28;20045;-81
2024/01/06 13:21:10;;;;;;;9.68;5.47;;;;;;;;;;4993841;28;20050;-86
2024/01/06 13:23:36;;;;;;;9.65;5.80;;;;;;;;;;5010496;28;20420;-84
2024/01/06 13:26:02;;;;;;;8.20;4.95;;;;;;;;;;4991317;28;20144;-82
2024/01/06 13:28:27;;;;;;;13.18;7.03;;;;;;;;;;4998943;28;20440;-83
2024/01/06 13:30:55;;;;;;;13.90;6.95;;;;;;;;;;4998856;28;20411;-82
2024/01/06 13:33:21;;;;;;;18.52;9.98;;;;;;;;;;4999482;28;20034;-85
2024/01/06 13:35:46;;;;;;;17.05;7.68;;;;;;;;;;4991057;28;20110;-83
2024/01/06 13:38:13;;;;;;;16.83;9.02;;;;;;;;;;4971958;28;20077;-83
2024/01/06 13:40:40;;;;;;;12.02;6.00;;;;;;;;;;4997711;28;20030;-81
2024/01/06 13:43:09;;;;;;;18.10;9.05;;;;;;;;;;5001856;28;20038;-81
2024/01/06 13:53:22;;;;;;;13.70;6.80;;;;;;;;;;4940859;28;20098;-82
2024/01/06 13:57:26;;;;;;;16.02;6.75;;;;;;;;;;4940182;29;20063;-80
2024/01/06 14:08:52;;;;;;;12.10;5.97;;;;;;;;;;4707840;30;20129;-82
2024/01/06 14:11:35;;;;;;;18.50;9.85;;;;;;;;;;4783678;29;20049;-82
2024/01/06 14:14:41;;;;;;;11.98;5.30;;;;;;;;;;4952522;28;20069;-82
2024/01/06 14:18:15;;;;;;;;;;;;;;;;;;;;;
2024/01/06 14:29:22;;;;;;;12.30;5.63;;;;;;;;;;4983489;28;20038;-81
2024/01/06 14:39:53;;;;;;;7.97;4.45;;;;;;;;;;4991932;28;20507;-82
2024/01/06 14:42:41;;;;;;;5.88;3.22;;;;;;;;;;4983938;28;20049;-82
2024/01/06 14:45:14;;;;;;;7.88;3.65;;;;;;;;;;4990680;28;20037;-84
2024/01/06 14:52:15;;;;;;;7.10;3.85;;;;;;;;;;4954677;28;20413;-82
2024/01/06 14:55:34;;;;;;;;;;;;;;;;;;;;;
2024/01/06 14:58:32;;;;;;;7.82;4.05;;;;;;;;;;4939571;28;20075;-83
2024/01/06 15:01:12;;;;;;;8.88;4.85;;;;;;;;;;4951742;28;20039;-81
2024/01/06 15:03:47;;;;;;;8.55;4.38;;;;;;;;;;4997663;28;20062;-82
2024/01/06 15:06:37;;;;;;;14.27;5.93;;;;;;;;;;5010638;28;20515;-82
2024/01/06 15:09:17;;;;;;;13.30;6.10;;;;;;;;;;4998296;28;20036;-82
2024/01/06 15:12:16;;;;;;;;;;;;;;;;;;;;;
2024/01/06 15:19:31;;;;;;;9.50;4.70;;;;;;;;;;4994814;28;20404;-82
2024/01/06 15:21:59;;;;;;;7.13;4.30;;;;;;;;;;4982767;28;20046;-84
2024/01/06 15:24:28;;;;;;;14.52;5.93;;;;;;;;;;4995823;28;20097;-83
2024/01/06 15:26:57;;;;;;;10.35;5.95;;;;;;;;;;5004170;28;20520;-80
2024/01/06 15:29:24;;;;;;;11.52;6.03;;;;;;;;;;4995779;28;20121;-81
2024/01/06 15:31:51;;;;;;;10.18;4.72;;;;;;;;;;4977649;28;20148;-82
2024/01/06 15:34:17;;;;;;;8.25;4.47;;;;;;;;;;4977236;28;20038;-84
2024/01/06 15:36:43;;;;;;;11.93;6.22;;;;;;;;;;4995044;28;20033;-84
2024/01/06 15:39:08;;;;;;;12.65;6.15;;;;;;;;;;4977409;28;20054;-84
2024/01/06 15:41:37;;;;;;;7.95;4.80;;;;;;;;;;4976907;28;20045;-82
2024/01/06 15:44:19;;;;;;;6.40;4.07;;;;;;;;;;4993172;28;20043;-81